WZZ221E ESMS-ESSA
Flight info
| Callsign | WZZ221E |
|---|---|
| Flight time | 0h 46m |
| Altitude | 33000 |
| Route | EKRAL P605 ETPIG DCT BEDOS N851 PELUP Z226 NILUG |
| Aircraft | A320/M-SDE3FGHIRWY/LB1 |
Departure
| Time | 2026-04-23 14:22 |
|---|---|
| Airport | Malmö Sturup Airport (ESMS) |
Arrival
| Time | 2026-04-23 15:08 |
|---|---|
| Airport | Stockholm-Arlanda Airport (ESSA) |
| Time | Latitude | Longitude | Altitude | Speed | Heading |
|---|---|---|---|---|---|
| 2026-04-23 14:21 | 55.75297 | 13.82700 | 12698 ft | 376 kts | 69° |
| 2026-04-23 14:22 | 55.76095 | 13.87129 | 13352 ft | 378 kts | 65° |
| 2026-04-23 14:22 | 55.77276 | 13.91270 | 13962 ft | 375 kts | 52° |
| 2026-04-23 14:22 | 55.78921 | 13.94833 | 14534 ft | 372 kts | 40° |
| 2026-04-23 14:22 | 55.80937 | 13.97675 | 15095 ft | 369 kts | 28° |
| 2026-04-23 14:23 | 55.83198 | 13.99659 | 15651 ft | 367 kts | 17° |
| 2026-04-23 14:23 | 55.85612 | 14.01121 | 16213 ft | 368 kts | 15° |
| 2026-04-23 14:23 | 55.88045 | 14.02591 | 16786 ft | 370 kts | 16° |
| 2026-04-23 14:23 | 55.90490 | 14.04079 | 17362 ft | 373 kts | 16° |
| 2026-04-23 14:24 | 55.92953 | 14.05582 | 17943 ft | 375 kts | 16° |
| 2026-04-23 14:24 | 55.95426 | 14.07096 | 18491 ft | 377 kts | 16° |
| 2026-04-23 14:24 | 55.97919 | 14.08627 | 18999 ft | 380 kts | 16° |
| 2026-04-23 14:24 | 56.00386 | 14.10145 | 19501 ft | 382 kts | 16° |
| 2026-04-23 14:25 | 56.02905 | 14.11695 | 20007 ft | 384 kts | 16° |
| 2026-04-23 14:25 | 56.05439 | 14.13255 | 20537 ft | 386 kts | 15° |
| 2026-04-23 14:25 | 56.07985 | 14.14825 | 21023 ft | 388 kts | 15° |
| 2026-04-23 14:25 | 56.10542 | 14.16403 | 21485 ft | 390 kts | 15° |
| 2026-04-23 14:26 | 56.13121 | 14.17994 | 21938 ft | 393 kts | 15° |
| 2026-04-23 14:26 | 56.15712 | 14.19598 | 22378 ft | 395 kts | 15° |
| 2026-04-23 14:26 | 56.18314 | 14.21211 | 22804 ft | 397 kts | 15° |
| 2026-04-23 14:26 | 56.20916 | 14.22944 | 23224 ft | 400 kts | 18° |
| 2026-04-23 14:27 | 56.23474 | 14.24818 | 23631 ft | 403 kts | 19° |
| 2026-04-23 14:27 | 56.26058 | 14.26816 | 23987 ft | 406 kts | 19° |
| 2026-04-23 14:27 | 56.28648 | 14.28861 | 24350 ft | 408 kts | 20° |
| 2026-04-23 14:27 | 56.31255 | 14.30916 | 24704 ft | 409 kts | 19° |
| 2026-04-23 14:28 | 56.33870 | 14.32959 | 25053 ft | 411 kts | 19° |
| 2026-04-23 14:28 | 56.36505 | 14.34995 | 25405 ft | 412 kts | 19° |
| 2026-04-23 14:28 | 56.39150 | 14.37018 | 25761 ft | 414 kts | 19° |
| 2026-04-23 14:28 | 56.41811 | 14.39042 | 26112 ft | 416 kts | 19° |
| 2026-04-23 14:29 | 56.44444 | 14.41044 | 26450 ft | 417 kts | 19° |
| 2026-04-23 14:29 | 56.47127 | 14.43085 | 26791 ft | 419 kts | 19° |
| 2026-04-23 14:29 | 56.49808 | 14.45132 | 27235 ft | 418 kts | 19° |
| 2026-04-23 14:29 | 56.52483 | 14.47187 | 27737 ft | 416 kts | 19° |
| 2026-04-23 14:30 | 56.55138 | 14.49237 | 28266 ft | 414 kts | 19° |
| 2026-04-23 14:30 | 56.57782 | 14.51283 | 28785 ft | 412 kts | 19° |
| 2026-04-23 14:30 | 56.60416 | 14.53322 | 29297 ft | 410 kts | 19° |
| 2026-04-23 14:30 | 56.63035 | 14.55349 | 29809 ft | 409 kts | 19° |
| 2026-04-23 14:31 | 56.65611 | 14.57340 | 30291 ft | 407 kts | 19° |
| 2026-04-23 14:31 | 56.68212 | 14.59355 | 30723 ft | 406 kts | 19° |
| 2026-04-23 14:31 | 56.70811 | 14.61373 | 31136 ft | 405 kts | 19° |
| 2026-04-23 14:31 | 56.73395 | 14.63385 | 31545 ft | 404 kts | 19° |
| 2026-04-23 14:32 | 56.75975 | 14.65398 | 31955 ft | 403 kts | 18° |
| 2026-04-23 14:32 | 56.78552 | 14.67414 | 32369 ft | 403 kts | 18° |
| 2026-04-23 14:32 | 56.81120 | 14.69426 | 32807 ft | 401 kts | 18° |
| 2026-04-23 14:32 | 56.83657 | 14.71412 | 33044 ft | 401 kts | 18° |
| 2026-04-23 14:33 | 56.88878 | 14.75490 | 33086 ft | 413 kts | 18° |
| 2026-04-23 14:33 | 56.94180 | 14.79665 | 33084 ft | 415 kts | 18° |
| 2026-04-23 14:34 | 56.99483 | 14.83866 | 33099 ft | 416 kts | 18° |
| 2026-04-23 14:34 | 57.04795 | 14.88084 | 33113 ft | 416 kts | 18° |
| 2026-04-23 14:35 | 57.10069 | 14.92266 | 33102 ft | 416 kts | 18° |
| 2026-04-23 14:35 | 57.15381 | 14.96498 | 33147 ft | 416 kts | 18° |
| 2026-04-23 14:36 | 57.20677 | 15.00736 | 33134 ft | 414 kts | 18° |
| 2026-04-23 14:36 | 57.25959 | 15.04973 | 33132 ft | 413 kts | 18° |
| 2026-04-23 14:37 | 57.31188 | 15.09189 | 33144 ft | 413 kts | 18° |
| 2026-04-23 14:37 | 57.36379 | 15.13785 | 33135 ft | 418 kts | 26° |
| 2026-04-23 14:38 | 57.41079 | 15.20292 | 33127 ft | 422 kts | 31° |
| 2026-04-23 14:38 | 57.45735 | 15.26937 | 33119 ft | 422 kts | 31° |
| 2026-04-23 14:39 | 57.50392 | 15.33596 | 33115 ft | 422 kts | 31° |
| 2026-04-23 14:39 | 57.55017 | 15.40206 | 33145 ft | 422 kts | 31° |
| 2026-04-23 14:40 | 57.59663 | 15.46896 | 33134 ft | 422 kts | 31° |
| 2026-04-23 14:40 | 57.64287 | 15.53609 | 33127 ft | 421 kts | 31° |
| 2026-04-23 14:41 | 57.68908 | 15.60315 | 33125 ft | 420 kts | 31° |
| 2026-04-23 14:41 | 57.73493 | 15.66971 | 33121 ft | 420 kts | 31° |
| 2026-04-23 14:42 | 57.78105 | 15.73698 | 33108 ft | 420 kts | 31° |
| 2026-04-23 14:42 | 57.82718 | 15.80444 | 33106 ft | 420 kts | 31° |
| 2026-04-23 14:43 | 57.87319 | 15.87201 | 33108 ft | 420 kts | 31° |
| 2026-04-23 14:43 | 57.91917 | 15.94003 | 33106 ft | 420 kts | 31° |
| 2026-04-23 14:44 | 57.96484 | 16.00756 | 33104 ft | 420 kts | 31° |
| 2026-04-23 14:44 | 58.01082 | 16.07557 | 33113 ft | 420 kts | 31° |
| 2026-04-23 14:45 | 58.05671 | 16.14383 | 33163 ft | 420 kts | 31° |
| 2026-04-23 14:45 | 58.10204 | 16.21168 | 33088 ft | 414 kts | 31° |
| 2026-04-23 14:46 | 58.14683 | 16.27887 | 33084 ft | 413 kts | 31° |
| 2026-04-23 14:46 | 58.19193 | 16.34659 | 33085 ft | 414 kts | 31° |
| 2026-04-23 14:47 | 58.23696 | 16.41450 | 33062 ft | 413 kts | 31° |
| 2026-04-23 14:47 | 58.25935 | 16.44846 | 32478 ft | 412 kts | 32° |
| 2026-04-23 14:47 | 58.28052 | 16.48586 | 31703 ft | 421 kts | 39° |
| 2026-04-23 14:48 | 58.29930 | 16.52939 | 31039 ft | 427 kts | 45° |
| 2026-04-23 14:48 | 58.31688 | 16.57464 | 30475 ft | 424 kts | 45° |
| 2026-04-23 14:48 | 58.33409 | 16.61895 | 29893 ft | 420 kts | 45° |
| 2026-04-23 14:48 | 58.35140 | 16.66343 | 29251 ft | 417 kts | 44° |
| 2026-04-23 14:49 | 58.36856 | 16.70754 | 28626 ft | 413 kts | 44° |
| 2026-04-23 14:49 | 58.38562 | 16.75139 | 28007 ft | 409 kts | 44° |
| 2026-04-23 14:49 | 58.40245 | 16.79470 | 27409 ft | 406 kts | 44° |
| 2026-04-23 14:49 | 58.41920 | 16.83784 | 26825 ft | 403 kts | 44° |
| 2026-04-23 14:50 | 58.43579 | 16.88062 | 26239 ft | 399 kts | 44° |
| 2026-04-23 14:50 | 58.45224 | 16.92314 | 25676 ft | 396 kts | 44° |
| 2026-04-23 14:50 | 58.46854 | 16.96537 | 25109 ft | 394 kts | 44° |
| 2026-04-23 14:50 | 58.48605 | 17.00326 | 24596 ft | 377 kts | 32° |
| 2026-04-23 14:51 | 58.50728 | 17.03069 | 24086 ft | 364 kts | 23° |
| 2026-04-23 14:51 | 58.52906 | 17.05500 | 23552 ft | 362 kts | 23° |
| 2026-04-23 14:51 | 58.55077 | 17.07906 | 22957 ft | 359 kts | 23° |
| 2026-04-23 14:51 | 58.57229 | 17.10287 | 22387 ft | 356 kts | 23° |
| 2026-04-23 14:52 | 58.59369 | 17.12658 | 21841 ft | 354 kts | 23° |
| 2026-04-23 14:52 | 58.61491 | 17.15013 | 21313 ft | 352 kts | 23° |
| 2026-04-23 14:52 | 58.63608 | 17.17371 | 20784 ft | 350 kts | 23° |
| 2026-04-23 14:52 | 58.65703 | 17.19706 | 20303 ft | 347 kts | 23° |
| 2026-04-23 14:53 | 58.67784 | 17.22032 | 19794 ft | 345 kts | 24° |
| 2026-04-23 14:53 | 58.69823 | 17.24315 | 19282 ft | 343 kts | 24° |
| 2026-04-23 14:53 | 58.71881 | 17.26622 | 18845 ft | 342 kts | 24° |
| 2026-04-23 14:53 | 58.73939 | 17.28928 | 18470 ft | 342 kts | 24° |
| 2026-04-23 14:54 | 58.75995 | 17.31235 | 18032 ft | 341 kts | 25° |
| 2026-04-23 14:54 | 58.78042 | 17.33538 | 17574 ft | 340 kts | 25° |
| 2026-04-23 14:54 | 58.80081 | 17.35840 | 17126 ft | 339 kts | 25° |
| 2026-04-23 14:54 | 58.82108 | 17.38124 | 16687 ft | 337 kts | 25° |
| 2026-04-23 14:55 | 58.84126 | 17.40400 | 16259 ft | 335 kts | 25° |
| 2026-04-23 14:55 | 58.86137 | 17.42672 | 15820 ft | 334 kts | 25° |
| 2026-04-23 14:55 | 58.88159 | 17.44838 | 15390 ft | 331 kts | 22° |
| 2026-04-23 14:55 | 58.90166 | 17.46863 | 14986 ft | 329 kts | 22° |
| 2026-04-23 14:56 | 58.92193 | 17.48894 | 14503 ft | 326 kts | 22° |
| 2026-04-23 14:56 | 58.94205 | 17.50906 | 13998 ft | 325 kts | 22° |
| 2026-04-23 14:56 | 58.96208 | 17.52904 | 13440 ft | 323 kts | 22° |
| 2026-04-23 14:56 | 58.98201 | 17.54883 | 12909 ft | 321 kts | 22° |
| 2026-04-23 14:57 | 59.00186 | 17.56834 | 12399 ft | 318 kts | 22° |
| 2026-04-23 14:57 | 59.02157 | 17.58754 | 11898 ft | 316 kts | 22° |
| 2026-04-23 14:57 | 59.04111 | 17.60650 | 11402 ft | 314 kts | 22° |
| 2026-04-23 14:57 | 59.06059 | 17.62543 | 10906 ft | 312 kts | 22° |
| 2026-04-23 14:58 | 59.07968 | 17.64392 | 10455 ft | 310 kts | 22° |
| 2026-04-23 14:58 | 59.09860 | 17.66231 | 10305 ft | 298 kts | 22° |
| 2026-04-23 14:58 | 59.11675 | 17.68013 | 10183 ft | 286 kts | 22° |
| 2026-04-23 14:58 | 59.13416 | 17.69733 | 10061 ft | 276 kts | 22° |
| 2026-04-23 14:59 | 59.15090 | 17.71394 | 9808 ft | 265 kts | 22° |
| 2026-04-23 14:59 | 59.16721 | 17.73017 | 9385 ft | 263 kts | 22° |
| 2026-04-23 14:59 | 59.18337 | 17.74627 | 9092 ft | 260 kts | 22° |
| 2026-04-23 14:59 | 59.19939 | 17.76227 | 8757 ft | 258 kts | 22° |
| 2026-04-23 15:00 | 59.21508 | 17.77802 | 8446 ft | 256 kts | 22° |
| 2026-04-23 15:00 | 59.23091 | 17.79393 | 8140 ft | 255 kts | 22° |
| 2026-04-23 15:00 | 59.24664 | 17.80973 | 7823 ft | 252 kts | 22° |
| 2026-04-23 15:00 | 59.26232 | 17.82416 | 7247 ft | 246 kts | 12° |
| 2026-04-23 15:01 | 59.27898 | 17.82782 | 6648 ft | 241 kts | 2° |
| 2026-04-23 15:01 | 59.29564 | 17.83207 | 6071 ft | 241 kts | 6° |
| 2026-04-23 15:01 | 59.31211 | 17.83789 | 5488 ft | 240 kts | 7° |
| 2026-04-23 15:01 | 59.32851 | 17.84382 | 4925 ft | 239 kts | 7° |
| 2026-04-23 15:02 | 59.33940 | 17.84771 | 4679 ft | 240 kts | 6° |
| 2026-04-23 15:02 | 59.36114 | 17.85545 | 4239 ft | 240 kts | 7° |
| 2026-04-23 15:02 | 59.37749 | 17.86129 | 4014 ft | 236 kts | 7° |
| 2026-04-23 15:02 | 59.39315 | 17.86691 | 4004 ft | 222 kts | 7° |
| 2026-04-23 15:03 | 59.40792 | 17.87219 | 4007 ft | 209 kts | 6° |
| 2026-04-23 15:03 | 59.42190 | 17.87718 | 4008 ft | 200 kts | 6° |
| 2026-04-23 15:03 | 59.43522 | 17.88195 | 3946 ft | 191 kts | 6° |
| 2026-04-23 15:03 | 59.44814 | 17.88656 | 3749 ft | 188 kts | 6° |
| 2026-04-23 15:04 | 59.46081 | 17.89109 | 3513 ft | 187 kts | 6° |
| 2026-04-23 15:04 | 59.47365 | 17.89568 | 3265 ft | 189 kts | 6° |
| 2026-04-23 15:04 | 59.48657 | 17.90032 | 3020 ft | 187 kts | 7° |
| 2026-04-23 15:04 | 59.49920 | 17.90487 | 2755 ft | 181 kts | 7° |
| 2026-04-23 15:05 | 59.51138 | 17.90925 | 2480 ft | 176 kts | 7° |
| 2026-04-23 15:05 | 59.52324 | 17.91352 | 2247 ft | 170 kts | 7° |
| 2026-04-23 15:05 | 59.53451 | 17.91758 | 2024 ft | 160 kts | 6° |
| 2026-04-23 15:05 | 59.54525 | 17.92145 | 1808 ft | 155 kts | 6° |
| 2026-04-23 15:06 | 59.55581 | 17.92524 | 1591 ft | 154 kts | 6° |
| 2026-04-23 15:06 | 59.56610 | 17.92896 | 1381 ft | 151 kts | 7° |
| 2026-04-23 15:06 | 59.57606 | 17.93256 | 1175 ft | 142 kts | 6° |
| 2026-04-23 15:06 | 59.58563 | 17.93601 | 985 ft | 138 kts | 6° |
| 2026-04-23 15:07 | 59.59504 | 17.93947 | 796 ft | 137 kts | 5° |
| 2026-04-23 15:07 | 59.60447 | 17.94282 | 619 ft | 139 kts | 4° |
| 2026-04-23 15:07 | 59.61402 | 17.94620 | 436 ft | 140 kts | 4° |
| 2026-04-23 15:07 | 59.62355 | 17.94984 | 241 ft | 139 kts | 6° |
| 2026-04-23 15:08 | 59.63296 | 17.95314 | 125 ft | 129 kts | 9° |
| 2026-04-23 15:08 | 59.63889 | 17.95531 | 114 ft | 43 kts | 10° |
| 2026-04-23 15:08 | 59.64119 | 17.95533 | 111 ft | 29 kts | 347° |
| 2026-04-23 15:09 | 59.64327 | 17.95392 | 107 ft | 5 kts | 340° |
| 2026-04-23 15:09 | 59.64373 | 17.95360 | 106 ft | 9 kts | 340° |
| 2026-04-23 15:09 | 59.64448 | 17.95328 | 105 ft | 12 kts | 0° |
| 2026-04-23 15:09 | 59.64517 | 17.95349 | 105 ft | 9 kts | 10° |
| 2026-04-23 15:10 | 59.64564 | 17.95366 | 105 ft | 12 kts | 10° |
| 2026-04-23 15:10 | 59.64687 | 17.95412 | 105 ft | 15 kts | 11° |
| 2026-04-23 15:10 | 59.64793 | 17.95451 | 107 ft | 16 kts | 10° |
| 2026-04-23 15:10 | 59.64903 | 17.95490 | 109 ft | 16 kts | 11° |
| 2026-04-23 15:11 | 59.65012 | 17.95517 | 113 ft | 16 kts | 359° |
| 2026-04-23 15:11 | 59.65117 | 17.95478 | 117 ft | 15 kts | 345° |
| 2026-04-23 15:11 | 59.65214 | 17.95426 | 121 ft | 14 kts | 345° |
| 2026-04-23 15:11 | 59.65306 | 17.95378 | 125 ft | 13 kts | 345° |
| 2026-04-23 15:12 | 59.65396 | 17.95330 | 126 ft | 14 kts | 345° |
| 2026-04-23 15:12 | 59.65500 | 17.95274 | 126 ft | 17 kts | 345° |
| 2026-04-23 15:12 | 59.65617 | 17.95213 | 128 ft | 18 kts | 345° |
| 2026-04-23 15:12 | 59.65724 | 17.95143 | 125 ft | 15 kts | 324° |
| 2026-04-23 15:13 | 59.65739 | 17.94935 | 123 ft | 18 kts | 256° |
| 2026-04-23 15:13 | 59.65708 | 17.94685 | 125 ft | 19 kts | 256° |
| 2026-04-23 15:13 | 59.65674 | 17.94424 | 122 ft | 20 kts | 256° |
| 2026-04-23 15:13 | 59.65640 | 17.94148 | 121 ft | 22 kts | 256° |
| 2026-04-23 15:14 | 59.65602 | 17.93850 | 113 ft | 15 kts | 256° |
| 2026-04-23 15:14 | 59.65574 | 17.93634 | 111 ft | 17 kts | 256° |
| 2026-04-23 15:14 | 59.65543 | 17.93390 | 110 ft | 19 kts | 256° |
| 2026-04-23 15:14 | 59.65510 | 17.93127 | 112 ft | 19 kts | 257° |
| 2026-04-23 15:15 | 59.65479 | 17.92926 | 112 ft | 15 kts | 250° |
| 2026-04-23 15:15 | 59.65436 | 17.92724 | 111 ft | 15 kts | 237° |
| 2026-04-23 15:15 | 59.65363 | 17.92702 | 111 ft | 10 kts | 151° |
| 2026-04-23 15:15 | 59.65343 | 17.92785 | 111 ft | 3 kts | 101° |
| 2026-04-23 15:16 | 59.65338 | 17.92837 | 112 ft | 4 kts | 101° |
| 2026-04-23 15:16 | 59.65333 | 17.92894 | 112 ft | 0 kts | 100° |
| 2026-04-23 15:16 | 59.65333 | 17.92900 | 112 ft | 1 kts | 99° |